Time;durP1;ratioP1;P1;durP2;ratioP2;P2;SDS_P1;SDS_P2;PMS_P1;PMS_P2;Temp;Humidity;BMP_temperature;BMP_pressure;BME280_temperature;BME280_humidity;BME280_pressure;Samples;Min_cycle;Max_cycle;Signal;HPM_P1;HPM_P2
2023/03/29 00:01:50;;;;;;;5.93;3.25;;;3.50;97.50;;;;;;5093352;28;20872;-79
2023/03/29 00:04:20;;;;;;;8.38;3.97;;;3.50;97.50;;;;;;5092245;28;20695;-79
2023/03/29 00:06:49;;;;;;;6.03;3.78;;;3.50;97.50;;;;;;5093580;28;20172;-81
2023/03/29 00:09:15;;;;;;;4.25;3.08;;;3.60;97.40;;;;;;5093399;28;20173;-78
2023/03/29 00:11:41;;;;;;;3.57;2.90;;;3.60;97.40;;;;;;5093208;28;20180;-79
2023/03/29 00:14:07;;;;;;;4.87;3.87;;;3.50;97.60;;;;;;5093245;28;20440;-80
2023/03/29 00:16:33;;;;;;;3.45;3.15;;;3.60;97.50;;;;;;5093255;28;20404;-80
2023/03/29 00:18:59;;;;;;;5.13;3.37;;;3.60;97.50;;;;;;5091932;28;20181;-78
2023/03/29 00:21:24;;;;;;;3.50;3.20;;;3.60;97.30;;;;;;5093181;28;20408;-78
2023/03/29 00:23:50;;;;;;;3.50;3.20;;;3.60;97.30;;;;;;5093702;28;20649;-81
2023/03/29 00:26:16;;;;;;;7.20;3.20;;;3.60;97.30;;;;;;5091995;28;20183;-79
2023/03/29 00:28:42;;;;;;;3.20;2.90;;;3.60;97.60;;;;;;5092278;28;20201;-81
2023/03/29 00:31:12;;;;;;;3.57;2.90;;;3.50;97.40;;;;;;5095612;28;20172;-81
2023/03/29 00:33:39;;;;;;;3.80;3.40;;;3.50;97.50;;;;;;5095640;28;20208;-81
2023/03/29 00:36:05;;;;;;;3.90;3.50;;;3.50;97.70;;;;;;5096809;28;20176;-81
2023/03/29 00:38:31;;;;;;;4.05;2.97;;;3.40;97.70;;;;;;5096691;28;20196;-81
2023/03/29 00:40:57;;;;;;;5.80;3.63;;;3.30;97.70;;;;;;5096640;28;20725;-79
2023/03/29 00:43:23;;;;;;;3.97;3.57;;;3.30;97.80;;;;;;5095565;28;20562;-80
2023/03/29 00:45:49;;;;;;;6.68;4.10;;;3.30;97.80;;;;;;5095169;28;20409;-79
2023/03/29 00:48:20;;;;;;;5.83;4.67;;;3.30;97.90;;;;;;5095361;28;20558;-81
2023/03/29 00:51:06;;;;;;;9.80;5.45;;;3.20;98.00;;;;;;5096539;28;20165;-80
2023/03/29 00:53:40;;;;;;;7.18;5.47;;;3.20;98.00;;;;;;5095323;28;20676;-79
2023/03/29 00:56:20;;;;;;;7.72;6.90;;;3.10;98.00;;;;;;5095288;28;20541;-81
2023/03/29 00:58:51;;;;;;;9.05;7.78;;;3.10;98.00;;;;;;5095174;28;20196;-81
2023/03/29 01:01:24;;;;;;;11.88;8.55;;;3.00;98.00;;;;;;5096182;28;20208;-79
2023/03/29 01:03:59;;;;;;;8.75;7.03;;;3.00;98.10;;;;;;5096720;28;20189;-79
2023/03/29 01:06:28;;;;;;;7.80;6.00;;;3.10;97.90;;;;;;5096170;28;20176;-81
2023/03/29 01:08:58;;;;;;;6.43;5.78;;;3.10;97.80;;;;;;5096624;28;20279;-81
2023/03/29 01:11:40;;;;;;;11.15;5.97;;;3.10;97.70;;;;;;5094920;28;20541;-79
2023/03/29 01:14:17;;;;;;;5.00;4.40;;;3.10;97.70;;;;;;5094678;28;20697;-78
2023/03/29 01:16:44;;;;;;;4.80;4.30;;;3.10;97.80;;;;;;5094949;28;20203;-79
2023/03/29 01:19:14;;;;;;;4.65;3.85;;;3.10;97.80;;;;;;5096079;28;20164;-81
2023/03/29 01:21:44;;;;;;;7.03;3.83;;;3.10;97.90;;;;;;5095994;28;20160;-79
2023/03/29 01:24:51;;;;;;;4.60;3.50;;;3.10;97.80;;;;;;5095922;28;20176;-81
2023/03/29 01:28:12;;;;;;;7.78;3.10;;;3.20;97.70;;;;;;5094395;28;20215;-81
2023/03/29 01:30:48;;;;;;;4.03;2.90;;;3.20;97.90;;;;;;5021370;28;20670;-78
2023/03/29 01:33:22;;;;;;;3.75;2.83;;;3.20;97.80;;;;;;5090234;28;20708;-80
2023/03/29 01:36:15;;;;;;;4.97;3.17;;;3.20;97.70;;;;;;5095662;28;20276;-81
2023/03/29 01:38:57;;;;;;;4.00;3.50;;;3.10;97.80;;;;;;5089695;28;20208;-81
2023/03/29 01:41:34;;;;;;;4.28;3.88;;;3.10;98.00;;;;;;5094079;28;20220;-78
2023/03/29 01:44:16;;;;;;;7.15;3.90;;;3.00;98.00;;;;;;5095915;28;20203;-81
2023/03/29 01:46:45;;;;;;;5.30;3.85;;;3.00;98.00;;;;;;5095265;28;20168;-79
2023/03/29 01:49:34;;;;;;;7.43;3.05;;;2.90;98.00;;;;;;5095463;28;20259;-79
2023/03/29 01:52:14;;;;;;;4.45;3.67;;;2.90;98.00;;;;;;5095547;28;20200;-79
2023/03/29 01:54:54;;;;;;;3.53;3.17;;;2.90;98.10;;;;;;5095379;28;20210;-81
2023/03/29 01:57:20;;;;;;;4.38;3.25;;;2.80;98.00;;;;;;5093948;28;20200;-79
2023/03/29 01:59:48;;;;;;;5.15;3.67;;;2.80;98.00;;;;;;5095063;28;20573;-81
2023/03/29 02:02:15;;;;;;;4.85;3.90;;;2.80;98.10;;;;;;5093719;28;20211;-81
2023/03/29 02:04:48;;;;;;;4.97;3.28;;;2.80;98.20;;;;;;5095041;28;20173;-78
2023/03/29 02:07:18;;;;;;;5.50;3.28;;;2.80;98.20;;;;;;5093722;28;20208;-79
2023/03/29 02:09:45;;;;;;;6.15;4.43;;;2.80;98.40;;;;;;5093925;28;20584;-78
2023/03/29 02:12:13;;;;;;;7.47;6.00;;;2.80;98.40;;;;;;5093476;28;20291;-81
2023/03/29 02:14:39;;;;;;;13.57;10.25;;;2.80;98.30;;;;;;5094604;28;20673;-78
2023/03/29 02:17:19;;;;;;;10.27;8.52;;;2.80;98.40;;;;;;5093477;28;20204;-81
2023/03/29 02:19:50;;;;;;;4.60;3.97;;;2.80;98.60;;;;;;5094811;28;20528;-78
2023/03/29 02:22:22;;;;;;;4.95;4.55;;;2.70;98.70;;;;;;5094874;28;20585;-81
2023/03/29 02:24:52;;;;;;;5.88;4.13;;;2.70;98.80;;;;;;5094554;28;20217;-78
2023/03/29 02:27:18;;;;;;;6.07;4.40;;;2.60;99.00;;;;;;5094660;28;20291;-81
2023/03/29 02:29:46;;;;;;;7.32;3.78;;;2.50;98.80;;;;;;5094547;28;20224;-79
2023/03/29 02:32:18;;;;;;;9.07;3.95;;;2.50;98.70;;;;;;5093138;28;20207;-79
2023/03/29 02:34:57;;;;;;;6.13;3.75;;;2.40;98.80;;;;;;5094512;28;20156;-78
2023/03/29 02:37:29;;;;;;;11.15;6.15;;;2.30;98.80;;;;;;5094710;28;20196;-78
2023/03/29 02:39:57;;;;;;;14.38;8.00;;;2.30;98.80;;;;;;5094319;28;20208;-79
2023/03/29 02:42:24;;;;;;;12.48;6.57;;;2.30;98.80;;;;;;5093120;28;20653;-81
2023/03/29 02:44:54;;;;;;;9.77;6.63;;;2.20;98.90;;;;;;5093031;28;20549;-78
2023/03/29 02:47:26;;;;;;;6.95;5.75;;;2.20;98.90;;;;;;5093073;28;20210;-78
2023/03/29 02:49:52;;;;;;;8.20;4.97;;;2.30;98.90;;;;;;5092976;28;20184;-81
2023/03/29 02:52:22;;;;;;;7.07;5.30;;;2.30;99.00;;;;;;5093744;28;20597;-81
2023/03/29 02:54:51;;;;;;;5.93;4.72;;;2.20;99.00;;;;;;5094235;28;20364;-81
2023/03/29 02:57:20;;;;;;;6.45;5.25;;;2.20;99.10;;;;;;5094243;28;20192;-79
2023/03/29 02:59:47;;;;;;;6.80;4.60;;;2.20;99.10;;;;;;5092796;28;20215;-78
2023/03/29 03:02:13;;;;;;;6.80;4.40;;;2.10;99.10;;;;;;5094246;28;20621;-79
2023/03/29 03:04:40;;;;;;;6.40;5.55;;;2.10;99.20;;;;;;5092739;28;20177;-81
2023/03/29 03:07:06;;;;;;;4.78;4.05;;;2.10;99.60;;;;;;5094070;28;20200;-79
2023/03/29 03:09:32;;;;;;;6.47;5.18;;;2.20;99.40;;;;;;5093964;28;20176;-79
2023/03/29 03:11:58;;;;;;;7.78;5.20;;;2.10;99.60;;;;;;5092574;28;20274;-81
2023/03/29 03:14:23;;;;;;;6.63;4.50;;;2.10;99.40;;;;;;5093687;28;20251;-81
2023/03/29 03:16:49;;;;;;;5.40;4.30;;;2.10;99.30;;;;;;5092483;28;20211;-79
2023/03/29 03:19:15;;;;;;;8.90;4.90;;;2.10;99.30;;;;;;5093901;28;20183;-79
2023/03/29 03:21:41;;;;;;;8.27;5.72;;;2.00;99.50;;;;;;5092363;28;20172;-81
2023/03/29 03:24:07;;;;;;;9.63;6.50;;;2.00;99.50;;;;;;5092623;28;20687;-81
2023/03/29 03:26:34;;;;;;;11.87;6.50;;;2.00;99.50;;;;;;5093601;28;20992;-78
2023/03/29 03:29:00;;;;;;;11.52;6.15;;;1.90;99.60;;;;;;5092560;28;20179;-81
2023/03/29 03:31:27;;;;;;;9.52;5.70;;;2.00;99.70;;;;;;5093754;28;20532;-80
2023/03/29 03:33:53;;;;;;;7.75;5.18;;;2.00;99.60;;;;;;5093430;28;20196;-81
2023/03/29 03:36:24;;;;;;;9.00;5.75;;;2.10;99.50;;;;;;5093614;28;20252;-81
2023/03/29 03:38:51;;;;;;;5.93;5.25;;;2.10;99.60;;;;;;5094115;28;20205;-80
2023/03/29 03:41:17;;;;;;;8.18;6.03;;;2.20;99.80;;;;;;5092143;28;20208;-79
2023/03/29 03:43:47;;;;;;;8.00;6.30;;;2.20;99.40;;;;;;5094029;28;20214;-79
2023/03/29 03:46:15;;;;;;;10.35;6.53;;;2.20;99.40;;;;;;5092348;28;20409;-81
2023/03/29 03:48:40;;;;;;;11.10;7.47;;;2.30;99.30;;;;;;5093934;28;20242;-82
2023/03/29 03:51:06;;;;;;;12.03;8.07;;;2.20;99.20;;;;;;5093543;28;20176;-79
2023/03/29 03:53:32;;;;;;;11.23;7.20;;;2.20;99.30;;;;;;5093872;28;20196;-79
2023/03/29 03:56:00;;;;;;;9.85;7.53;;;2.10;99.30;;;;;;5093430;28;20409;-82
2023/03/29 03:58:27;;;;;;;10.57;6.25;;;2.10;99.60;;;;;;5093792;28;20197;-81
2023/03/29 04:00:53;;;;;;;7.60;5.60;;;2.10;99.90;;;;;;5092028;28;20630;-81
2023/03/29 04:03:20;;;;;;;10.05;7.00;;;2.10;99.80;;;;;;5092172;28;20225;-82
2023/03/29 04:05:47;;;;;;;15.38;9.07;;;2.10;99.90;;;;;;5095805;28;20603;-79
2023/03/29 04:08:13;;;;;;;12.65;8.32;;;2.10;99.90;;;;;;5096110;28;20208;-79
2023/03/29 04:10:39;;;;;;;12.95;8.43;;;2.10;99.90;;;;;;5097126;28;20171;-81
2023/03/29 04:13:05;;;;;;;12.90;8.17;;;2.10;99.90;;;;;;5097306;28;20271;-79
2023/03/29 04:15:34;;;;;;;9.55;6.95;;;2.10;99.90;;;;;;5096657;28;20528;-81
2023/03/29 04:18:00;;;;;;;11.10;6.50;;;2.10;99.90;;;;;;5097288;28;20351;-79
2023/03/29 04:20:27;;;;;;;6.77;6.03;;;2.10;99.90;;;;;;5097038;28;20236;-79
2023/03/29 04:22:53;;;;;;;9.65;7.03;;;2.20;99.90;;;;;;5097015;28;20249;-79
2023/03/29 04:25:20;;;;;;;16.52;9.75;;;2.20;99.90;;;;;;5096290;28;20164;-79
2023/03/29 04:27:46;;;;;;;14.23;9.38;;;2.20;99.90;;;;;;5095878;28;20235;-78
2023/03/29 04:30:12;;;;;;;12.05;9.57;;;2.50;99.90;;;;;;5084740;28;20666;-78
2023/03/29 04:32:38;;;;;;;18.53;10.60;;;3.00;99.90;;;;;;5085935;28;20299;-78
2023/03/29 04:35:04;;;;;;;18.37;11.30;;;3.30;99.90;;;;;;5094433;28;20210;-80
2023/03/29 04:37:31;;;;;;;13.90;10.70;;;3.10;99.90;;;;;;5094338;28;20676;-79
2023/03/29 04:39:59;;;;;;;18.50;10.93;;;2.80;99.90;;;;;;5094361;28;20206;-79
2023/03/29 04:42:26;;;;;;;17.05;10.50;;;2.70;99.90;;;;;;5080262;28;20208;-78
2023/03/29 04:44:52;;;;;;;13.70;9.77;;;2.60;99.90;;;;;;5089609;28;20180;-81
2023/03/29 04:47:18;;;;;;;14.23;9.00;;;2.60;99.90;;;;;;5094631;28;20662;-82
2023/03/29 04:49:44;;;;;;;13.77;10.95;;;2.50;99.90;;;;;;5094188;28;20445;-81
2023/03/29 04:52:10;;;;;;;32.65;23.95;;;2.50;99.90;;;;;;5086549;28;20556;-79
2023/03/29 04:54:36;;;;;;;25.52;16.83;;;2.60;99.90;;;;;;5092219;28;20310;-82
2023/03/29 04:57:06;;;;;;;35.65;25.00;;;2.40;99.90;;;;;;5093396;28;20333;-78
2023/03/29 04:59:32;;;;;;;24.20;21.20;;;2.30;99.90;;;;;;5093995;28;20246;-82
2023/03/29 05:01:59;;;;;;;14.68;12.85;;;2.30;99.90;;;;;;5092653;28;20200;-81
2023/03/29 05:04:27;;;;;;;15.07;10.90;;;2.20;99.90;;;;;;5094528;28;20165;-82
2023/03/29 05:06:53;;;;;;;31.33;21.30;;;2.20;99.90;;;;;;5096116;28;20203;-78
2023/03/29 05:09:18;;;;;;;23.87;13.37;;;2.20;99.90;;;;;;5095648;28;20554;-80
2023/03/29 05:11:44;;;;;;;14.37;8.97;;;2.30;99.90;;;;;;5087516;28;20512;-78
2023/03/29 05:14:10;;;;;;;9.97;7.87;;;2.40;99.90;;;;;;5075229;28;20315;-82
2023/03/29 05:16:36;;;;;;;8.97;6.60;;;2.40;99.90;;;;;;5088111;28;20440;-78
2023/03/29 05:19:02;;;;;;;16.27;8.88;;;2.50;99.90;;;;;;5088758;28;20906;-78
2023/03/29 05:21:28;;;;;;;11.07;7.53;;;2.50;99.90;;;;;;5098484;28;20264;-77
2023/03/29 05:23:54;;;;;;;15.67;9.40;;;2.50;99.90;;;;;;5110860;28;20489;-78
2023/03/29 05:26:21;;;;;;;12.43;8.10;;;2.50;99.90;;;;;;5101264;28;20188;-81
2023/03/29 05:28:48;;;;;;;12.18;8.63;;;2.50;99.90;;;;;;5093139;28;20676;-79
2023/03/29 05:31:15;;;;;;;13.73;9.05;;;2.50;99.90;;;;;;5098920;28;20342;-81
2023/03/29 05:33:41;;;;;;;12.35;9.00;;;2.60;99.90;;;;;;5093035;28;20283;-78
2023/03/29 05:36:15;;;;;;;10.95;8.48;;;2.70;99.90;;;;;;5090731;28;20641;-81
2023/03/29 05:38:45;;;;;;;10.25;8.30;;;2.70;99.90;;;;;;5091668;28;20196;-78
2023/03/29 05:41:12;;;;;;;14.75;8.60;;;2.90;99.90;;;;;;5100607;28;20222;-81
2023/03/29 05:43:38;;;;;;;10.70;8.35;;;2.90;99.90;;;;;;5096829;28;20253;-78
2023/03/29 05:46:05;;;;;;;14.30;9.00;;;3.00;99.90;;;;;;5086224;28;20670;-78
2023/03/29 05:48:31;;;;;;;9.15;7.93;;;3.00;99.90;;;;;;5103636;28;20200;-82
2023/03/29 05:50:57;;;;;;;11.32;7.93;;;3.10;99.90;;;;;;5115476;28;20170;-78
2023/03/29 05:53:25;;;;;;;13.13;8.07;;;3.20;99.90;;;;;;5087942;28;20208;-79
2023/03/29 05:55:52;;;;;;;9.52;7.75;;;3.30;99.90;;;;;;5097971;28;20237;-81
2023/03/29 05:58:19;;;;;;;12.32;8.32;;;3.40;99.90;;;;;;5097544;28;20211;-79
2023/03/29 06:00:48;;;;;;;9.55;7.97;;;3.50;99.80;;;;;;5092337;28;20306;-79
2023/03/29 06:03:19;;;;;;;10.82;8.85;;;3.60;99.60;;;;;;5098084;28;20212;-81
2023/03/29 06:05:47;;;;;;;11.85;8.07;;;3.60;99.70;;;;;;5111037;28;20176;-81
2023/03/29 06:08:15;;;;;;;10.30;7.15;;;3.70;99.70;;;;;;5091541;28;20204;-78
2023/03/29 06:10:42;;;;;;;10.00;7.40;;;3.80;99.40;;;;;;5104015;28;20184;-78
2023/03/29 06:13:08;;;;;;;9.77;6.97;;;3.90;99.50;;;;;;5090510;28;20204;-79
2023/03/29 06:15:34;;;;;;;7.17;6.27;;;4.10;99.40;;;;;;5091491;28;20762;-81
2023/03/29 06:18:01;;;;;;;8.30;6.87;;;4.20;99.60;;;;;;5091106;28;20453;-78
2023/03/29 06:20:27;;;;;;;7.15;5.13;;;4.30;99.50;;;;;;5088746;28;20467;-79
2023/03/29 06:22:54;;;;;;;7.57;5.30;;;4.40;99.00;;;;;;5090692;28;20292;-78
2023/03/29 06:25:19;;;;;;;6.70;5.27;;;4.50;98.60;;;;;;5091103;28;20173;-78
2023/03/29 06:27:46;;;;;;;9.60;5.10;;;4.60;98.60;;;;;;5090693;28;20949;-81
2023/03/29 06:30:14;;;;;;;6.72;4.50;;;4.70;98.50;;;;;;5090639;28;20185;-78
2023/03/29 06:32:43;;;;;;;6.72;6.00;;;4.80;98.30;;;;;;5090969;28;20743;-78
2023/03/29 06:35:10;;;;;;;5.85;4.85;;;4.90;98.30;;;;;;5090344;28;20230;-81
2023/03/29 06:37:48;;;;;;;10.23;4.63;;;4.90;98.20;;;;;;5092029;28;20299;-78
2023/03/29 06:40:16;;;;;;;7.18;5.60;;;5.00;98.10;;;;;;5089909;28;20216;-81
2023/03/29 06:42:42;;;;;;;7.60;4.90;;;5.10;98.50;;;;;;5088892;28;20196;-80
2023/03/29 06:45:09;;;;;;;7.43;4.30;;;5.20;98.50;;;;;;5079291;28;20199;-80
2023/03/29 06:47:34;;;;;;;6.72;4.28;;;5.40;98.00;;;;;;5072285;28;20441;-81
2023/03/29 06:50:00;;;;;;;4.77;4.33;;;5.50;97.90;;;;;;5091541;28;20210;-79
2023/03/29 06:52:26;;;;;;;5.97;4.50;;;5.60;97.60;;;;;;5076120;28;20452;-81
2023/03/29 06:54:51;;;;;;;5.40;3.90;;;5.70;97.40;;;;;;5084949;28;20209;-79
2023/03/29 06:57:17;;;;;;;4.47;4.00;;;5.80;97.40;;;;;;5087534;28;20283;-79
2023/03/29 06:59:43;;;;;;;10.35;7.25;;;6.00;96.90;;;;;;5086207;28;20261;-80
2023/03/29 07:02:11;;;;;;;4.17;3.73;;;6.00;96.60;;;;;;5080425;28;20212;-80
2023/03/29 07:04:37;;;;;;;4.75;3.70;;;6.20;96.40;;;;;;5089514;28;20165;-81
2023/03/29 07:07:04;;;;;;;4.25;3.85;;;6.30;96.00;;;;;;5089946;28;20200;-79
2023/03/29 07:09:32;;;;;;;5.63;3.75;;;6.50;95.70;;;;;;5087773;28;20259;-78
2023/03/29 07:11:58;;;;;;;8.32;5.30;;;6.50;94.80;;;;;;5087831;28;20228;-79
2023/03/29 07:14:27;;;;;;;6.53;4.45;;;6.60;94.60;;;;;;5079846;28;20217;-79
2023/03/29 07:16:57;;;;;;;6.38;4.78;;;6.70;93.50;;;;;;5085296;28;20201;-78
2023/03/29 07:19:26;;;;;;;4.72;3.70;;;6.80;92.70;;;;;;5092324;28;20660;-80
2023/03/29 07:21:52;;;;;;;4.30;3.25;;;6.90;92.70;;;;;;5088547;28;20219;-78
2023/03/29 07:24:19;;;;;;;4.50;3.50;;;7.00;92.50;;;;;;5089354;28;20176;-79
2023/03/29 07:26:45;;;;;;;3.60;3.30;;;7.10;92.00;;;;;;5087722;28;20192;-81
2023/03/29 07:29:12;;;;;;;3.83;3.42;;;7.00;92.00;;;;;;5084075;28;20499;-79
2023/03/29 07:31:39;;;;;;;5.45;3.90;;;7.10;92.30;;;;;;5087480;28;20185;-81
2023/03/29 07:34:09;;;;;;;4.90;3.88;;;7.20;92.40;;;;;;5089910;28;20263;-81
2023/03/29 07:36:38;;;;;;;4.18;3.13;;;7.30;91.80;;;;;;5084926;28;20646;-79
2023/03/29 07:39:05;;;;;;;4.85;3.42;;;7.40;92.20;;;;;;5089060;28;20204;-81
2023/03/29 07:41:31;;;;;;;3.97;3.55;;;7.50;90.50;;;;;;5094383;28;20618;-81
2023/03/29 07:43:57;;;;;;;3.83;3.43;;;7.40;90.90;;;;;;5092502;28;20172;-81
2023/03/29 07:46:23;;;;;;;3.70;2.90;;;7.60;90.70;;;;;;5092585;28;20419;-81
2023/03/29 07:48:50;;;;;;;3.90;3.50;;;7.70;90.10;;;;;;5091755;28;20222;-81
2023/03/29 07:51:15;;;;;;;3.92;3.15;;;7.80;90.50;;;;;;5093327;28;20641;-79
2023/03/29 07:53:41;;;;;;;4.33;2.97;;;7.90;91.40;;;;;;5094864;28;20216;-80
2023/03/29 07:56:08;;;;;;;3.30;3.00;;;8.00;90.70;;;;;;5092515;28;20433;-80
2023/03/29 07:58:34;;;;;;;3.92;3.55;;;8.10;90.50;;;;;;5090348;28;20470;-81
2023/03/29 08:01:00;;;;;;;3.55;3.25;;;8.20;89.20;;;;;;5095808;28;20214;-79
2023/03/29 08:03:27;;;;;;;5.00;3.53;;;8.20;87.30;;;;;;5094243;28;20587;-79
2023/03/29 08:05:53;;;;;;;6.00;3.45;;;8.20;87.00;;;;;;5095085;28;20417;-80
2023/03/29 08:08:19;;;;;;;4.00;3.67;;;8.20;89.20;;;;;;5090697;28;20200;-79
2023/03/29 08:10:45;;;;;;;3.00;2.70;;;8.20;87.80;;;;;;5092023;28;20596;-81
2023/03/29 08:13:11;;;;;;;5.80;3.60;;;8.30;86.80;;;;;;5090860;28;20960;-80
2023/03/29 08:15:38;;;;;;;4.38;3.53;;;8.30;87.30;;;;;;5093146;28;20412;-81
2023/03/29 08:18:06;;;;;;;4.95;3.53;;;8.30;86.40;;;;;;5092604;28;20197;-80
2023/03/29 08:20:31;;;;;;;4.47;3.42;;;8.30;86.10;;;;;;5094583;28;20208;-80
2023/03/29 08:22:57;;;;;;;3.70;3.40;;;8.30;86.20;;;;;;5083285;28;20673;-79
2023/03/29 08:25:23;;;;;;;3.37;3.07;;;8.40;86.50;;;;;;5095397;28;20181;-79
2023/03/29 08:27:48;;;;;;;5.30;4.00;;;8.50;82.90;;;;;;5094327;28;20266;-79
2023/03/29 08:30:14;;;;;;;5.07;3.63;;;8.50;84.70;;;;;;5087521;28;20209;-81
2023/03/29 08:32:40;;;;;;;5.50;4.60;;;8.70;83.10;;;;;;5092677;28;20269;-80
2023/03/29 08:35:08;;;;;;;3.10;2.65;;;9.30;83.90;;;;;;5091058;28;20671;-80
2023/03/29 08:37:35;;;;;;;3.30;3.10;;;10.10;80.30;;;;;;5092588;28;20204;-80
2023/03/29 08:40:01;;;;;;;3.95;2.90;;;10.90;77.60;;;;;;5093618;28;20211;-81
2023/03/29 08:42:41;;;;;;;3.75;3.10;;;11.60;76.10;;;;;;5090995;28;20196;-81
2023/03/29 08:45:34;;;;;;;2.92;2.70;;;12.30;75.40;;;;;;5090640;28;20174;-80
2023/03/29 08:48:11;;;;;;;11.63;8.68;;;13.20;73.50;;;;;;5092409;28;20681;-81
2023/03/29 08:50:46;;;;;;;13.50;11.05;;;14.00;72.80;;;;;;5092127;28;20179;-81
2023/03/29 08:53:23;;;;;;;4.13;2.90;;;14.80;70.70;;;;;;5093521;28;20200;-81
2023/03/29 08:55:51;;;;;;;7.83;3.10;;;15.40;69.20;;;;;;5093530;28;20420;-80
2023/03/29 08:58:25;;;;;;;2.77;2.57;;;15.90;69.30;;;;;;5093776;28;20452;-80
2023/03/29 09:00:57;;;;;;;3.47;3.00;;;16.10;66.10;;;;;;5093178;28;20510;-81
2023/03/29 09:03:39;;;;;;;3.90;3.30;;;16.10;65.00;;;;;;5085700;28;20853;-80
2023/03/29 09:06:07;;;;;;;3.30;2.40;;;16.10;61.30;;;;;;5079989;28;20409;-82
2023/03/29 09:08:39;;;;;;;3.83;3.10;;;15.70;60.60;;;;;;5090119;28;20456;-80
2023/03/29 09:11:23;;;;;;;3.47;3.17;;;15.40;60.50;;;;;;5087279;28;20965;-81
2023/03/29 09:14:14;;;;;;;3.90;3.10;;;14.90;61.00;;;;;;5087409;28;20557;-81
2023/03/29 09:16:55;;;;;;;4.00;3.60;;;14.60;62.30;;;;;;5075926;28;20539;-82
2023/03/29 09:19:46;;;;;;;3.13;2.83;;;14.80;62.30;;;;;;5086029;28;20427;-80
2023/03/29 09:22:17;;;;;;;2.70;2.50;;;15.00;61.90;;;;;;5084171;28;20978;-80
2023/03/29 09:24:57;;;;;;;4.40;3.00;;;15.20;61.60;;;;;;5087245;28;20429;-82
2023/03/29 09:27:31;;;;;;;3.50;2.70;;;15.10;59.60;;;;;;5091813;28;20449;-81
2023/03/29 09:30:24;;;;;;;3.07;2.80;;;14.90;60.10;;;;;;5090268;28;20409;-81
2023/03/29 09:32:55;;;;;;;3.90;2.50;;;14.80;61.90;;;;;;5088815;28;20440;-81
2023/03/29 09:35:23;;;;;;;3.43;2.73;;;14.90;63.90;;;;;;5088357;28;20458;-82
2023/03/29 09:37:52;;;;;;;18.10;16.20;;;14.80;62.00;;;;;;5087299;28;20460;-81
2023/03/29 09:40:31;;;;;;;3.10;2.90;;;14.40;63.00;;;;;;5087323;28;20663;-81
2023/03/29 09:42:59;;;;;;;4.60;3.40;;;14.10;61.60;;;;;;5082374;28;20581;-81
2023/03/29 09:45:25;;;;;;;4.43;2.60;;;14.00;63.60;;;;;;5082590;28;20934;-81
2023/03/29 09:48:06;;;;;;;2.87;2.67;;;14.20;62.30;;;;;;5091945;28;20487;-80
2023/03/29 09:50:36;;;;;;;2.80;2.27;;;14.10;63.30;;;;;;5089654;28;20184;-82
2023/03/29 09:53:04;;;;;;;2.67;2.47;;;14.30;65.40;;;;;;5089246;28;20456;-81
2023/03/29 09:55:32;;;;;;;2.73;2.33;;;14.40;60.40;;;;;;5090195;28;20428;-81
2023/03/29 09:58:01;;;;;;;5.50;2.23;;;14.20;61.30;;;;;;5089120;28;20472;-80
2023/03/29 10:00:27;;;;;;;2.50;2.20;;;13.90;65.20;;;;;;5089991;28;20460;-81
2023/03/29 10:02:55;;;;;;;2.63;2.20;;;13.90;64.90;;;;;;5087218;28;20565;-81
2023/03/29 10:05:24;;;;;;;4.00;2.37;;;13.90;66.30;;;;;;5085210;28;20528;-80
2023/03/29 10:07:52;;;;;;;4.30;2.87;;;13.80;64.00;;;;;;5089098;28;20452;-80
2023/03/29 10:10:32;;;;;;;3.10;2.80;;;13.60;62.90;;;;;;5083431;28;20448;-80
2023/03/29 10:13:05;;;;;;;3.37;3.07;;;13.40;61.60;;;;;;5083306;28;20483;-80
2023/03/29 10:15:31;;;;;;;3.67;3.20;;;13.20;64.20;;;;;;5102361;28;21063;-80
2023/03/29 10:18:05;;;;;;;3.60;2.63;;;13.00;65.70;;;;;;5080455;28;20473;-81
2023/03/29 10:20:35;;;;;;;3.53;2.53;;;13.00;65.50;;;;;;5066927;28;20457;-80
2023/03/29 10:23:00;;;;;;;2.67;2.40;;;13.10;65.30;;;;;;5080790;28;20866;-80
2023/03/29 10:25:30;;;;;;;3.07;2.73;;;13.20;64.10;;;;;;5081652;28;20436;-80
2023/03/29 10:28:23;;;;;;;3.00;2.50;;;13.20;64.10;;;;;;5086382;28;20208;-79
2023/03/29 10:30:58;;;;;;;3.10;2.57;;;13.10;64.30;;;;;;5085837;28;20409;-78
2023/03/29 10:33:29;;;;;;;2.80;2.60;;;13.00;66.10;;;;;;5085363;28;20464;-80
2023/03/29 10:35:56;;;;;;;2.97;2.23;;;13.00;66.20;;;;;;5089416;28;20873;-80
2023/03/29 10:38:26;;;;;;;2.50;1.97;;;13.00;66.40;;;;;;5087219;28;20459;-78
2023/03/29 10:40:53;;;;;;;2.60;2.40;;;13.00;67.20;;;;;;5087258;28;20605;-79
2023/03/29 10:43:21;;;;;;;4.20;2.47;;;13.00;66.70;;;;;;5090265;28;20452;-79
2023/03/29 10:45:55;;;;;;;5.13;2.13;;;13.10;66.00;;;;;;5089105;28;20428;-80
2023/03/29 10:48:29;;;;;;;2.37;2.10;;;13.20;68.00;;;;;;5084899;28;21185;-79
2023/03/29 10:50:59;;;;;;;2.43;2.03;;;13.30;64.50;;;;;;5085871;28;20520;-79
2023/03/29 10:53:34;;;;;;;4.07;3.00;;;13.40;66.90;;;;;;5085753;28;20469;-79
2023/03/29 10:56:28;;;;;;;4.70;2.77;;;13.30;66.60;;;;;;5091308;28;20421;-79
2023/03/29 10:59:09;;;;;;;4.63;2.60;;;13.30;66.90;;;;;;5088328;28;20453;-80
2023/03/29 11:01:59;;;;;;;3.30;2.40;;;13.40;68.30;;;;;;5090015;28;21019;-80
2023/03/29 11:04:43;;;;;;;3.20;1.93;;;13.40;64.50;;;;;;5092636;28;20443;-78
2023/03/29 11:07:30;;;;;;;3.40;2.50;;;13.20;64.50;;;;;;5085205;28;20457;-78
2023/03/29 11:10:05;;;;;;;2.83;2.53;;;13.10;65.00;;;;;;5088892;28;20946;-81
2023/03/29 11:12:55;;;;;;;3.40;2.90;;;13.20;65.70;;;;;;5079956;28;20748;-81
2023/03/29 11:15:42;;;;;;;3.13;2.50;;;13.10;65.30;;;;;;5081487;28;21115;-82
2023/03/29 11:18:08;;;;;;;3.83;2.70;;;12.80;65.60;;;;;;5080934;28;20466;-81
2023/03/29 11:20:59;;;;;;;4.27;2.83;;;12.70;66.80;;;;;;5082190;28;20835;-80
2023/03/29 11:23:40;;;;;;;3.73;3.43;;;12.70;67.50;;;;;;5081661;28;20480;-80
2023/03/29 11:26:12;;;;;;;2.97;2.70;;;12.90;68.00;;;;;;5084925;28;20997;-81
2023/03/29 11:29:06;;;;;;;2.10;1.90;;;13.20;68.80;;;;;;5088368;28;20471;-80
2023/03/29 11:31:44;;;;;;;3.73;2.53;;;13.30;68.00;;;;;;5081436;28;20422;-81
2023/03/29 11:34:28;;;;;;;4.37;2.63;;;13.60;69.60;;;;;;5082862;28;20429;-81
2023/03/29 11:37:19;;;;;;;2.30;2.10;;;13.80;67.10;;;;;;5086268;28;20467;-82
2023/03/29 11:39:45;;;;;;;2.47;2.27;;;13.90;69.50;;;;;;5072101;28;20557;-80
2023/03/29 11:42:22;;;;;;;2.67;2.47;;;14.00;66.60;;;;;;5089188;28;20974;-81
2023/03/29 11:44:50;;;;;;;4.67;3.20;;;14.00;67.30;;;;;;5082921;28;20180;-81
2023/03/29 11:47:21;;;;;;;3.23;2.40;;;14.00;68.30;;;;;;5082763;28;20938;-80
2023/03/29 11:49:56;;;;;;;5.20;3.10;;;14.20;67.30;;;;;;5082895;28;20791;-80
2023/03/29 11:52:28;;;;;;;4.17;2.70;;;14.20;67.30;;;;;;5090661;28;20767;-82
2023/03/29 11:55:15;;;;;;;4.50;1.93;;;14.30;67.10;;;;;;5083723;28;20435;-81
2023/03/29 11:57:52;;;;;;;2.30;2.10;;;14.40;68.00;;;;;;5088672;28;20449;-81
2023/03/29 12:00:50;;;;;;;2.93;2.30;;;14.40;67.30;;;;;;5086330;28;20472;-81
2023/03/29 12:03:41;;;;;;;3.50;2.33;;;14.40;66.70;;;;;;5077395;28;20475;-81
2023/03/29 12:06:36;;;;;;;2.90;2.60;;;14.40;67.00;;;;;;5077866;28;20421;-81
2023/03/29 12:09:11;;;;;;;4.80;2.83;;;14.50;66.50;;;;;;5081933;28;20548;-80
2023/03/29 12:11:49;;;;;;;2.53;2.33;;;14.50;67.00;;;;;;5083546;28;20427;-80
2023/03/29 12:14:24;;;;;;;3.47;2.60;;;14.50;65.70;;;;;;5086708;28;20472;-81
2023/03/29 12:17:00;;;;;;;4.13;2.50;;;14.50;67.30;;;;;;5079846;28;20436;-80
2023/03/29 12:19:39;;;;;;;3.07;2.77;;;14.30;65.70;;;;;;5076220;28;20854;-81
2023/03/29 12:22:06;;;;;;;4.97;2.70;;;14.30;65.70;;;;;;5076129;28;20827;-79
2023/03/29 12:24:37;;;;;;;3.57;2.53;;;14.20;68.00;;;;;;5084169;28;20442;-80
2023/03/29 12:27:19;;;;;;;2.87;2.07;;;14.20;69.40;;;;;;5087156;28;20552;-79
2023/03/29 12:29:50;;;;;;;3.80;2.90;;;14.30;69.10;;;;;;5084522;28;20800;-80
2023/03/29 12:32:25;;;;;;;4.60;3.00;;;14.20;67.30;;;;;;5089936;28;20457;-81
2023/03/29 12:35:07;;;;;;;2.67;2.47;;;14.30;68.80;;;;;;5083374;28;20460;-79
2023/03/29 12:37:59;;;;;;;3.03;2.70;;;14.30;68.50;;;;;;5084641;28;20540;-80
2023/03/29 12:40:27;;;;;;;3.77;2.73;;;14.20;66.80;;;;;;5091979;28;20726;-81
2023/03/29 12:43:00;;;;;;;2.83;2.63;;;14.00;68.00;;;;;;5083937;28;20445;-78
2023/03/29 12:45:33;;;;;;;3.30;2.60;;;14.00;69.50;;;;;;5086110;28;20574;-79
2023/03/29 12:48:00;;;;;;;2.80;2.60;;;14.00;67.30;;;;;;5081174;28;20460;-79
2023/03/29 12:50:41;;;;;;;4.40;3.07;;;14.10;69.10;;;;;;5082126;28;20841;-79
2023/03/29 12:53:21;;;;;;;3.50;2.50;;;14.20;69.00;;;;;;5077327;28;20529;-79
2023/03/29 12:56:01;;;;;;;3.80;3.40;;;14.10;68.20;;;;;;5082989;28;20469;-79
2023/03/29 12:59:05;;;;;;;3.73;3.03;;;14.10;70.00;;;;;;5100567;28;20494;-78
2023/03/29 13:01:36;;;;;;;3.53;3.10;;;14.10;71.00;;;;;;5080977;28;21072;-81
2023/03/29 13:04:19;;;;;;;3.80;3.10;;;14.20;68.90;;;;;;5088762;28;20930;-80
2023/03/29 13:06:47;;;;;;;2.90;2.70;;;14.20;68.90;;;;;;5089056;28;20437;-78
2023/03/29 13:09:47;;;;;;;3.27;2.97;;;14.20;69.30;;;;;;5091683;28;20473;-79
2023/03/29 13:12:38;;;;;;;3.17;2.90;;;14.20;71.30;;;;;;5088831;28;20461;-81